Time;durP1;ratioP1;P1;durP2;ratioP2;P2;SDS_P1;SDS_P2;PMS_P1;PMS_P2;Temp;Humidity;BMP_temperature;BMP_pressure;BME280_temperature;BME280_humidity;BME280_pressure;Samples;Min_cycle;Max_cycle;Signal;HPM_P1;HPM_P2
2022/01/14 00:00:34;;;;;;;;;;;0.50;99.90;;;;;;5034478;28;20000;-66
2022/01/14 00:02:59;;;;;;;;;;;0.50;99.90;;;;;;5034081;28;19905;-66
2022/01/14 00:05:25;;;;;;;;;;;0.50;99.90;;;;;;5034064;28;19905;-67
2022/01/14 00:07:50;;;;;;;;;;;0.50;99.90;;;;;;5033914;28;19916;-67
2022/01/14 00:10:16;;;;;;;;;;;0.40;99.90;;;;;;5033892;28;19912;-66
2022/01/14 00:12:50;;;;;;;;;;;0.50;99.90;;;;;;5034281;28;20489;-66
2022/01/14 00:15:26;;;;;;;;;;;0.50;99.90;;;;;;5034302;28;19911;-66
2022/01/14 00:17:55;;;;;;;;;;;0.50;99.90;;;;;;5034407;28;19992;-66
2022/01/14 00:20:21;;;;;;;;;;;0.50;99.90;;;;;;5033445;28;19905;-68
2022/01/14 00:22:47;;;;;;;;;;;0.50;99.90;;;;;;5033771;28;19912;-67
2022/01/14 00:33:09;;;;;;;;;;;0.30;99.90;;;;;;5033723;28;19920;-67
2022/01/14 00:35:36;;;;;;;;;;;0.30;99.90;;;;;;5034000;28;19905;-68
2022/01/14 00:38:01;;;;;;;;;;;0.30;99.90;;;;;;5033795;28;19980;-67
2022/01/14 00:40:27;;;;;;;;;;;0.30;99.90;;;;;;5033289;28;19956;-67
2022/01/14 00:42:53;;;;;;;;;;;0.20;99.90;;;;;;5033345;28;19967;-67
2022/01/14 00:45:18;;;;;;;;;;;0.20;99.90;;;;;;5033398;28;19905;-67
2022/01/14 00:47:44;;;;;;;;;;;0.10;99.90;;;;;;5033470;28;19905;-67
2022/01/14 00:50:11;;;;;;;;;;;0.00;99.90;;;;;;5033324;28;19905;-66
2022/01/14 00:52:37;;;;;;;;;;;-0.10;99.90;;;;;;5033653;28;19905;-66
2022/01/14 00:55:03;;;;;;;;;;;-0.20;99.90;;;;;;5033496;28;19909;-66
2022/01/14 01:00:14;;;;;;;;;;;-0.20;99.90;;;;;;5033861;28;19916;-66
2022/01/14 01:02:39;;;;;;;;;;;-0.30;99.90;;;;;;5033861;28;19992;-65
2022/01/14 01:05:05;;;;;;;;;;;-0.30;99.90;;;;;;5033638;28;19944;-67
2022/01/14 01:07:30;;;;;;;;;;;-0.30;99.90;;;;;;5033882;28;19905;-67
2022/01/14 01:09:56;;;;;;;;;;;-0.30;99.90;;;;;;5033687;28;19905;-65
2022/01/14 01:15:04;;;;;;;;;;;-0.30;99.90;;;;;;5037213;28;19909;-66
2022/01/14 01:17:30;;;;;;;;;;;-0.30;99.90;;;;;;5037180;28;19947;-66
2022/01/14 01:19:56;;;;;;;;;;;-0.30;99.90;;;;;;5037146;28;19912;-67
2022/01/14 01:22:21;;;;;;;;;;;-0.20;99.90;;;;;;5035744;28;19916;-67
2022/01/14 01:24:47;;;;;;;;;;;-0.20;99.90;;;;;;5037182;28;19905;-67
2022/01/14 01:27:14;;;;;;;;;;;-0.30;99.90;;;;;;5037024;28;19916;-65
2022/01/14 01:32:06;;;;;;;;;;;-0.30;99.90;;;;;;5037130;28;19913;-65
2022/01/14 01:34:32;;;;;;;;;;;-0.40;99.90;;;;;;5036639;28;19916;-66
2022/01/14 01:36:58;;;;;;;;;;;-0.40;99.90;;;;;;5036539;28;20274;-66
2022/01/14 01:39:26;;;;;;;;;;;-0.40;99.90;;;;;;5036572;28;19952;-67
2022/01/14 01:41:53;;;;;;;;;;;-0.50;99.90;;;;;;5036747;28;19909;-67
2022/01/14 01:44:19;;;;;;;;;;;-0.50;99.90;;;;;;5036458;28;20341;-66
2022/01/14 01:46:47;;;;;;;;;;;-0.40;99.90;;;;;;5036648;28;19996;-65
2022/01/14 01:49:14;;;;;;;;;;;-0.40;99.90;;;;;;5036681;28;19909;-68
2022/01/14 01:51:39;;;;;;;;;;;-0.30;99.90;;;;;;5035468;28;19974;-66
2022/01/14 01:54:05;;;;;;;;;;;-0.40;99.90;;;;;;5036394;28;19905;-66
2022/01/14 01:56:31;;;;;;;;;;;-0.30;99.90;;;;;;5036890;28;19905;-66
2022/01/14 01:58:56;;;;;;;;;;;-0.30;99.90;;;;;;5036096;28;19905;-67
2022/01/14 02:01:22;;;;;;;;;;;-0.30;99.90;;;;;;5036409;28;20286;-66
2022/01/14 02:03:48;;;;;;;;;;;-0.20;99.90;;;;;;5036494;28;19912;-66
2022/01/14 02:06:14;;;;;;;;;;;-0.20;99.90;;;;;;5036082;28;19905;-66
2022/01/14 02:08:40;;;;;;;;;;;-0.10;99.90;;;;;;5034679;28;19905;-67
2022/01/14 02:11:05;;;;;;;;;;;0.10;99.90;;;;;;5036047;28;19999;-66
2022/01/14 02:13:31;;;;;;;;;;;0.10;99.90;;;;;;5036838;28;19912;-66
2022/01/14 02:23:44;;;;;;;;;;;0.20;99.90;;;;;;5035863;28;19955;-66
2022/01/14 02:26:09;;;;;;;;;;;0.20;99.90;;;;;;5037071;28;20004;-66
2022/01/14 02:28:35;;;;;;;;;;;0.20;99.90;;;;;;5035903;28;20349;-66
2022/01/14 02:31:00;;;;;;;;;;;0.20;99.90;;;;;;5036049;28;19959;-66
2022/01/14 02:33:26;;;;;;;;;;;0.20;99.90;;;;;;5036001;28;19995;-66
2022/01/14 02:35:51;;;;;;;;;;;0.20;99.90;;;;;;5036571;28;19912;-66
2022/01/14 02:38:18;;;;;;;;;;;0.20;99.90;;;;;;5036262;28;19991;-66
2022/01/14 02:40:44;;;;;;;;;;;0.20;99.90;;;;;;5034846;28;19909;-66
2022/01/14 02:43:14;;;;;;;;;;;0.30;99.90;;;;;;5036100;28;19912;-66
2022/01/14 02:45:41;;;;;;;;;;;0.30;99.90;;;;;;5035573;28;19992;-66
2022/01/14 02:48:07;;;;;;;;;;;0.40;99.90;;;;;;5035980;28;19905;-66
2022/01/14 02:50:43;;;;;;;;;;;0.30;99.90;;;;;;5036128;28;19909;-66
2022/01/14 02:53:45;;;;;;;;;;;0.30;99.90;;;;;;5035701;28;20307;-66
2022/01/14 02:56:01;;;;;;;;;;;0.30;99.90;;;;;;5033875;28;20239;-66
2022/01/14 02:58:29;;;;;;;;;;;0.30;99.90;;;;;;5035430;28;20226;-66
2022/01/14 03:00:55;;;;;;;;;;;0.30;99.90;;;;;;5035078;28;19909;-66
2022/01/14 03:03:24;;;;;;;;;;;0.50;99.90;;;;;;5035084;28;19943;-66
2022/01/14 03:05:51;;;;;;;;;;;0.40;99.90;;;;;;5035238;28;19912;-66
2022/01/14 03:08:17;;;;;;;;;;;0.30;99.90;;;;;;5034860;28;19983;-66
2022/01/14 03:10:44;;;;;;;;;;;0.20;99.90;;;;;;5035079;28;19909;-66
2022/01/14 03:13:10;;;;;;;;;;;0.10;99.90;;;;;;5034646;28;19905;-65
2022/01/14 03:15:35;;;;;;;;;;;0.00;99.90;;;;;;5034678;28;20258;-66
2022/01/14 03:18:01;;;;;;;;;;;0.00;99.90;;;;;;5033216;28;20258;-66
2022/01/14 03:20:50;;;;;;;;;;;0.10;99.90;;;;;;5034934;28;19912;-66
2022/01/14 03:23:13;;;;;;;;;;;0.10;99.90;;;;;;5034190;28;19912;-65
2022/01/14 03:25:48;;;;;;;;;;;0.20;99.90;;;;;;5034348;28;19916;-65
2022/01/14 03:28:21;;;;;;;;;;;0.30;99.90;;;;;;5034453;28;19906;-66
2022/01/14 03:30:47;;;;;;;;;;;0.40;99.90;;;;;;5034370;28;19912;-66
2022/01/14 03:33:13;;;;;;;;;;;0.20;99.90;;;;;;5032279;28;19969;-66
2022/01/14 03:35:38;;;;;;;;;;;0.10;99.90;;;;;;5034682;28;19905;-67
2022/01/14 03:38:04;;;;;;;;;;;0.00;99.90;;;;;;5034973;28;19911;-66
2022/01/14 03:40:30;;;;;;;;;;;0.00;99.90;;;;;;5034343;28;19905;-66
2022/01/14 03:42:55;;;;;;;;;;;0.00;99.90;;;;;;5034037;28;19909;-66
2022/01/14 03:45:21;;;;;;;;;;;0.00;99.90;;;;;;5034385;28;20208;-66
2022/01/14 03:47:46;;;;;;;;;;;0.10;99.90;;;;;;5033247;28;20384;-66
2022/01/14 03:50:12;;;;;;;;;;;0.10;99.90;;;;;;5034469;28;20258;-66
2022/01/14 03:52:37;;;;;;;;;;;0.10;99.90;;;;;;5034002;28;19975;-66
2022/01/14 03:55:03;;;;;;;;;;;0.10;99.90;;;;;;5032654;28;20006;-66
2022/01/14 03:57:28;;;;;;;;;;;0.10;99.90;;;;;;5034029;28;19916;-66
2022/01/14 03:59:54;;;;;;;;;;;0.10;99.90;;;;;;5033014;28;20329;-66
2022/01/14 04:02:19;;;;;;;;;;;0.10;99.90;;;;;;5033797;28;19909;-66
2022/01/14 04:04:45;;;;;;;;;;;0.10;99.90;;;;;;5033844;28;19958;-66
2022/01/14 04:07:10;;;;;;;;;;;0.20;99.90;;;;;;5032454;28;20316;-66
2022/01/14 04:09:37;;;;;;;;;;;0.20;99.90;;;;;;5033800;28;19905;-66
2022/01/14 04:12:08;;;;;;;;;;;0.20;99.90;;;;;;5033701;28;19909;-66
2022/01/14 04:17:02;;;;;;;;;;;0.30;99.90;;;;;;5033703;28;19909;-66
2022/01/14 04:19:29;;;;;;;;;;;0.20;99.90;;;;;;5034205;28;20325;-66
2022/01/14 04:21:54;;;;;;;;;;;0.20;99.90;;;;;;5033973;28;19909;-66
2022/01/14 04:24:20;;;;;;;;;;;0.20;99.90;;;;;;5034000;28;19927;-66
2022/01/14 04:26:45;;;;;;;;;;;0.20;99.90;;;;;;5033532;28;19911;-66
2022/01/14 04:29:11;;;;;;;;;;;0.30;99.90;;;;;;5033440;28;20362;-66
2022/01/14 04:31:36;;;;;;;;;;;0.30;99.90;;;;;;5033364;28;19913;-67
2022/01/14 04:34:02;;;;;;;;;;;0.30;99.90;;;;;;5033456;28;19966;-68
2022/01/14 04:36:27;;;;;;;;;;;0.30;99.90;;;;;;5032171;28;20378;-67
2022/01/14 04:38:53;;;;;;;;;;;0.30;99.90;;;;;;5033683;28;20350;-67
2022/01/14 04:41:18;;;;;;;;;;;0.30;99.90;;;;;;5033426;28;19952;-68
2022/01/14 04:43:44;;;;;;;;;;;0.30;99.90;;;;;;5034274;28;20293;-65
2022/01/14 04:48:35;;;;;;;;;;;0.40;99.90;;;;;;5033362;28;20350;-68
2022/01/14 04:51:06;;;;;;;;;;;0.40;99.90;;;;;;5034471;28;19905;-66
2022/01/14 04:53:31;;;;;;;;;;;0.60;99.90;;;;;;5033088;28;19905;-66
2022/01/14 04:55:57;;;;;;;;;;;0.60;99.90;;;;;;5033343;28;20415;-67
2022/01/14 04:58:24;;;;;;;;;;;0.60;99.90;;;;;;5033667;28;19909;-66
2022/01/14 05:00:49;;;;;;;;;;;0.50;99.90;;;;;;5033769;28;19909;-67
2022/01/14 05:03:15;;;;;;;;;;;0.50;99.90;;;;;;5033306;28;19983;-67
2022/01/14 05:05:44;;;;;;;;;;;0.50;99.90;;;;;;5033099;28;19959;-67
2022/01/14 05:08:15;;;;;;;;;;;0.50;99.90;;;;;;5034534;28;19909;-66
2022/01/14 05:13:16;;;;;;;;;;;0.50;99.90;;;;;;5034375;28;20047;-66
2022/01/14 05:15:42;;;;;;;;;;;0.40;99.90;;;;;;5033285;28;19905;-66
2022/01/14 05:18:07;;;;;;;;;;;0.40;99.90;;;;;;5031975;28;19911;-66
2022/01/14 05:20:33;;;;;;;;;;;0.50;99.90;;;;;;5033396;28;20329;-66
2022/01/14 05:22:58;;;;;;;;;;;0.50;99.90;;;;;;5034307;28;19989;-68
2022/01/14 05:25:24;;;;;;;;;;;0.50;99.90;;;;;;5034886;28;19950;-64
2022/01/14 05:27:49;;;;;;;;;;;0.50;99.90;;;;;;5036030;28;19905;-64
2022/01/14 05:30:15;;;;;;;;;;;0.60;99.90;;;;;;5035253;28;19912;-66
2022/01/14 05:32:48;;;;;;;;;;;0.50;99.90;;;;;;5032962;28;20300;-64
2022/01/14 05:35:17;;;;;;;;;;;0.50;99.90;;;;;;5035062;28;19996;-64
2022/01/14 05:37:43;;;;;;;;;;;0.60;99.90;;;;;;5033464;28;19909;-65
2022/01/14 05:40:09;;;;;;;;;;;0.70;99.90;;;;;;5033934;28;19912;-63
2022/01/14 05:42:36;;;;;;;;;;;0.60;99.90;;;;;;5036370;28;19979;-66
2022/01/14 05:45:03;;;;;;;;;;;0.70;99.90;;;;;;5033505;28;20373;-64
2022/01/14 05:47:28;;;;;;;;;;;0.60;99.90;;;;;;5033569;28;19905;-66
2022/01/14 05:49:54;;;;;;;;;;;0.50;99.90;;;;;;5033154;28;19987;-63
2022/01/14 05:52:19;;;;;;;;;;;0.50;99.90;;;;;;5032914;28;19905;-63
2022/01/14 05:54:45;;;;;;;;;;;0.60;99.90;;;;;;5032715;28;19955;-63
2022/01/14 05:57:10;;;;;;;;;;;0.50;99.90;;;;;;5033661;28;20307;-63
2022/01/14 05:59:36;;;;;;;;;;;0.50;99.90;;;;;;5036341;28;19954;-63
2022/01/14 06:02:02;;;;;;;;;;;0.60;99.90;;;;;;5035107;28;19909;-63
2022/01/14 06:04:28;;;;;;;;;;;0.70;99.90;;;;;;5036331;28;20370;-63
2022/01/14 06:06:54;;;;;;;;;;;0.70;99.90;;;;;;5036380;28;20321;-62
2022/01/14 06:09:19;;;;;;;;;;;0.60;99.90;;;;;;5036723;28;19905;-63
2022/01/14 06:11:45;;;;;;;;;;;0.60;99.90;;;;;;5036869;28;19964;-64
2022/01/14 06:14:10;;;;;;;;;;;0.60;99.90;;;;;;5036705;28;20266;-64
2022/01/14 06:16:36;;;;;;;;;;;0.60;99.90;;;;;;5036688;28;20215;-63
2022/01/14 06:19:01;;;;;;;;;;;0.60;99.90;;;;;;5034949;28;19905;-63
2022/01/14 06:21:27;;;;;;;;;;;0.60;99.90;;;;;;5035752;28;19920;-64
2022/01/14 06:23:52;;;;;;;;;;;0.60;99.90;;;;;;5037123;28;19909;-66
2022/01/14 06:26:18;;;;;;;;;;;0.60;99.90;;;;;;5037993;28;19971;-65
2022/01/14 06:28:43;;;;;;;;;;;0.60;99.90;;;;;;5036812;28;19951;-65
2022/01/14 06:31:09;;;;;;;;;;;0.70;99.90;;;;;;5036273;28;19916;-65
2022/01/14 06:33:35;;;;;;;;;;;0.70;99.90;;;;;;5034415;28;20306;-65
2022/01/14 06:36:00;;;;;;;;;;;0.70;99.90;;;;;;5039199;28;19991;-64
2022/01/14 06:38:26;;;;;;;;;;;0.70;99.90;;;;;;5035777;28;20369;-65
2022/01/14 06:40:51;;;;;;;;;;;0.70;99.90;;;;;;5037311;28;19909;-64
2022/01/14 06:43:18;;;;;;;;;;;0.70;99.90;;;;;;5037999;28;19987;-65
2022/01/14 06:45:43;;;;;;;;;;;0.70;99.90;;;;;;5036320;28;20354;-64
2022/01/14 06:48:09;;;;;;;;;;;0.70;99.90;;;;;;5034654;28;20430;-64
2022/01/14 06:50:35;;;;;;;;;;;0.70;99.90;;;;;;5036038;28;20281;-67
2022/01/14 06:53:00;;;;;;;;;;;0.80;99.90;;;;;;5034080;28;19905;-65
2022/01/14 06:55:26;;;;;;;;;;;0.80;99.90;;;;;;5035409;28;19912;-65
2022/01/14 06:57:51;;;;;;;;;;;0.70;99.90;;;;;;5035382;28;19905;-64
2022/01/14 07:00:18;;;;;;;;;;;0.70;99.90;;;;;;5034408;28;19905;-65
2022/01/14 07:02:43;;;;;;;;;;;0.80;99.90;;;;;;5034723;28;20403;-65
2022/01/14 07:05:09;;;;;;;;;;;0.90;99.90;;;;;;5034181;28;19990;-65
2022/01/14 07:07:35;;;;;;;;;;;1.00;99.90;;;;;;5034321;28;19994;-65
2022/01/14 07:10:01;;;;;;;;;;;1.00;99.90;;;;;;5033275;28;19911;-65
2022/01/14 07:12:31;;;;;;;;;;;1.10;99.90;;;;;;5035083;28;19912;-65
2022/01/14 07:14:57;;;;;;;;;;;1.20;99.90;;;;;;5032876;28;19905;-66
2022/01/14 07:17:23;;;;;;;;;;;1.10;99.90;;;;;;5032839;28;20256;-65
2022/01/14 07:19:51;;;;;;;;;;;1.00;99.90;;;;;;5034468;28;19905;-65
2022/01/14 07:22:17;;;;;;;;;;;0.90;99.90;;;;;;5035679;28;20358;-65
2022/01/14 07:24:42;;;;;;;;;;;0.90;99.90;;;;;;5036111;28;19905;-66
2022/01/14 07:27:09;;;;;;;;;;;0.90;99.90;;;;;;5034619;28;20011;-68
2022/01/14 07:29:35;;;;;;;;;;;0.80;99.90;;;;;;5034643;28;19940;-67
2022/01/14 07:32:00;;;;;;;;;;;0.80;99.90;;;;;;5034703;28;19924;-67
2022/01/14 07:34:26;;;;;;;;;;;0.80;99.90;;;;;;5034552;28;20000;-67
2022/01/14 07:36:51;;;;;;;;;;;1.00;99.90;;;;;;5035063;28;19951;-67
2022/01/14 07:39:19;;;;;;;;;;;0.90;99.90;;;;;;5033574;28;19905;-67
2022/01/14 07:41:47;;;;;;;;;;;0.90;99.90;;;;;;5035015;28;19944;-67
2022/01/14 07:44:13;;;;;;;;;;;0.90;99.90;;;;;;5035080;28;19909;-65
2022/01/14 07:46:39;;;;;;;;;;;1.10;99.90;;;;;;5034977;28;19911;-65
2022/01/14 07:49:04;;;;;;;;;;;1.00;99.90;;;;;;5035786;28;19905;-66
2022/01/14 07:51:30;;;;;;;;;;;1.10;99.90;;;;;;5035380;28;19905;-67
2022/01/14 07:53:56;;;;;;;;;;;1.20;99.90;;;;;;5034832;28;19905;-65
2022/01/14 07:56:22;;;;;;;;;;;1.00;99.90;;;;;;5034745;28;19905;-66
2022/01/14 07:58:48;;;;;;;;;;;1.00;99.90;;;;;;5034329;28;20329;-67
2022/01/14 08:01:14;;;;;;;;;;;0.80;99.90;;;;;;5034936;28;19908;-66
2022/01/14 08:03:39;;;;;;;;;;;1.00;99.90;;;;;;5034125;28;19905;-66
2022/01/14 08:06:05;;;;;;;;;;;0.80;99.90;;;;;;5034179;28;20349;-66
2022/01/14 08:08:31;;;;;;;;;;;0.90;99.90;;;;;;5034310;28;20383;-66
2022/01/14 08:10:58;;;;;;;;;;;1.00;99.90;;;;;;5034862;28;19905;-66
2022/01/14 08:13:23;;;;;;;;;;;1.00;99.90;;;;;;5034471;28;19999;-66
2022/01/14 08:15:49;;;;;;;;;;;1.20;99.90;;;;;;5033205;28;19963;-66
2022/01/14 08:18:15;;;;;;;;;;;1.00;99.90;;;;;;5032896;28;19985;-65
2022/01/14 08:20:40;;;;;;;;;;;0.90;99.90;;;;;;5033919;28;19911;-64
2022/01/14 08:23:06;;;;;;;;;;;0.90;99.90;;;;;;5034220;28;19956;-66
2022/01/14 08:25:31;;;;;;;;;;;0.90;99.90;;;;;;5034023;28;19905;-64
2022/01/14 08:27:57;;;;;;;;;;;0.90;99.90;;;;;;5034100;28;20016;-66
2022/01/14 08:30:22;;;;;;;;;;;0.90;99.90;;;;;;5033843;28;20263;-65
2022/01/14 08:32:48;;;;;;;;;;;0.90;99.90;;;;;;5033604;28;19913;-66
2022/01/14 08:35:13;;;;;;;;;;;0.90;99.90;;;;;;5033743;28;19905;-65
2022/01/14 08:37:39;;;;;;;;;;;1.00;99.90;;;;;;5033746;28;19927;-66
2022/01/14 08:40:08;;;;;;;;;;;1.00;99.90;;;;;;5033790;28;19916;-66
2022/01/14 08:42:34;;;;;;;;;;;1.00;99.90;;;;;;5033599;28;19995;-66
2022/01/14 08:45:00;;;;;;;;;;;0.90;99.90;;;;;;5034121;28;19941;-66
2022/01/14 08:47:25;;;;;;;;;;;1.00;99.90;;;;;;5034391;28;19909;-66
2022/01/14 08:49:51;;;;;;;;;;;1.00;99.90;;;;;;5034046;28;20294;-66
2022/01/14 08:52:17;;;;;;;;;;;1.10;99.90;;;;;;5034138;28;19912;-66
2022/01/14 08:54:43;;;;;;;;;;;0.90;99.90;;;;;;5034389;28;19912;-66
2022/01/14 08:57:09;;;;;;;;;;;0.80;99.90;;;;;;5033589;28;19904;-66
2022/01/14 08:59:34;;;;;;;;;;;0.90;99.90;;;;;;5033753;28;19905;-67
2022/01/14 09:02:00;;;;;;;;;;;1.00;99.90;;;;;;5033779;28;19995;-66
2022/01/14 09:04:26;;;;;;;;;;;1.20;99.90;;;;;;5033426;28;20274;-67
2022/01/14 09:06:51;;;;;;;;;;;1.20;99.90;;;;;;5033332;28;20293;-66
2022/01/14 09:09:17;;;;;;;;;;;1.20;99.90;;;;;;5033879;28;19958;-66
2022/01/14 09:11:43;;;;;;;;;;;1.30;99.90;;;;;;5033753;28;19959;-65
2022/01/14 09:14:08;;;;;;;;;;;1.30;99.90;;;;;;5032647;28;19905;-63
2022/01/14 09:16:34;;;;;;;;;;;1.30;99.90;;;;;;5034557;28;19973;-63
2022/01/14 09:19:00;;;;;;;;;;;1.40;99.90;;;;;;5034029;28;20278;-63
2022/01/14 09:21:25;;;;;;;;;;;1.40;99.90;;;;;;5032272;28;20003;-64
2022/01/14 09:23:54;;;;;;;;;;;1.40;99.90;;;;;;5032076;28;19912;-63
2022/01/14 09:26:20;;;;;;;;;;;1.40;99.90;;;;;;5033747;28;19996;-63
2022/01/14 09:28:46;;;;;;;;;;;1.50;99.90;;;;;;5033033;28;20348;-63
2022/01/14 09:31:11;;;;;;;;;;;1.50;99.90;;;;;;5032670;28;19909;-63
2022/01/14 09:33:38;;;;;;;;;;;1.60;99.90;;;;;;5037098;28;19909;-62
2022/01/14 09:36:04;;;;;;;;;;;1.60;99.90;;;;;;5037259;28;19978;-63
2022/01/14 09:38:30;;;;;;;;;;;1.70;99.90;;;;;;5037380;28;19905;-65
2022/01/14 09:40:56;;;;;;;;;;;1.70;99.90;;;;;;5037299;28;19932;-66
2022/01/14 09:43:21;;;;;;;;;;;1.80;99.90;;;;;;5036957;28;20277;-66
2022/01/14 09:45:50;;;;;;;;;;;1.80;99.90;;;;;;5036992;28;19997;-67
2022/01/14 09:48:15;;;;;;;;;;;1.80;99.90;;;;;;5037043;28;19959;-66
2022/01/14 09:50:41;;;;;;;;;;;1.80;99.90;;;;;;5036568;28;19906;-66
2022/01/14 09:53:09;;;;;;;;;;;1.70;99.90;;;;;;5037389;28;19911;-67
2022/01/14 09:55:35;;;;;;;;;;;1.70;99.90;;;;;;5037717;28;19905;-67
2022/01/14 09:58:01;;;;;;;;;;;1.70;99.90;;;;;;5037114;28;19905;-62
2022/01/14 10:00:27;;;;;;;;;;;1.60;99.90;;;;;;5036622;28;20278;-61
2022/01/14 10:02:52;;;;;;;;;;;1.50;99.90;;;;;;5036961;28;20332;-62
2022/01/14 10:05:38;;;;;;;;;;;1.60;99.90;;;;;;5036749;28;19905;-63
2022/01/14 10:08:13;;;;;;;;;;;1.60;99.90;;;;;;5036340;28;19943;-69
2022/01/14 10:10:42;;;;;;;;;;;1.60;99.90;;;;;;5038052;28;19911;-67
2022/01/14 10:13:12;;;;;;;;;;;1.60;99.90;;;;;;5038754;28;19905;-70
2022/01/14 10:15:44;;;;;;;;;;;1.60;99.90;;;;;;5037094;28;20377;-66
2022/01/14 10:18:12;;;;;;;;;;;1.70;99.90;;;;;;5036998;28;19905;-65
2022/01/14 10:20:38;;;;;;;;;;;1.70;99.90;;;;;;5037211;28;19916;-64
2022/01/14 10:23:03;;;;;;;;;;;1.70;99.90;;;;;;5036264;28;19905;-64
2022/01/14 10:25:29;;;;;;;;;;;1.80;99.90;;;;;;5036306;28;19912;-63
2022/01/14 10:27:55;;;;;;;;;;;1.80;99.90;;;;;;5037107;28;19932;-64
2022/01/14 10:30:24;;;;;;;;;;;1.90;99.90;;;;;;5037474;28;19931;-63
2022/01/14 10:32:53;;;;;;;;;;;2.00;99.90;;;;;;5034378;28;19913;-62
2022/01/14 10:35:22;;;;;;;;;;;2.00;99.90;;;;;;5036023;28;20420;-64
2022/01/14 10:37:47;;;;;;;;;;;2.10;99.90;;;;;;5036230;28;19905;-63
2022/01/14 10:40:16;;;;;;;;;;;2.20;99.90;;;;;;5036974;28;19916;-62
2022/01/14 10:42:42;;;;;;;;;;;2.20;99.90;;;;;;5035693;28;19909;-63
2022/01/14 10:45:14;;;;;;;;;;;2.10;99.90;;;;;;5036217;28;19905;-63
2022/01/14 10:47:40;;;;;;;;;;;1.80;99.90;;;;;;5035763;28;20000;-64
2022/01/14 10:50:06;;;;;;;;;;;1.50;99.90;;;;;;5034324;28;19905;-63
2022/01/14 10:52:32;;;;;;;;;;;1.70;99.90;;;;;;5035319;28;20358;-63
2022/01/14 10:54:59;;;;;;;;;;;2.00;99.90;;;;;;5034097;28;19920;-64
2022/01/14 10:57:28;;;;;;;;;;;2.00;99.90;;;;;;5035520;28;19912;-63
2022/01/14 10:59:55;;;;;;;;;;;2.00;99.90;;;;;;5035584;28;20389;-64
2022/01/14 11:02:33;;;;;;;;;;;2.10;99.90;;;;;;5035231;28;19939;-63
2022/01/14 11:04:59;;;;;;;;;;;2.10;99.90;;;;;;5036382;28;20357;-64
2022/01/14 11:07:25;;;;;;;;;;;2.20;99.90;;;;;;5035665;28;19909;-65
2022/01/14 11:09:52;;;;;;;;;;;2.30;99.90;;;;;;5035616;28;19905;-63
2022/01/14 11:12:18;;;;;;;;;;;2.10;99.90;;;;;;5035268;28;19905;-64
2022/01/14 11:14:44;;;;;;;;;;;2.20;99.90;;;;;;5035285;28;19951;-63
2022/01/14 11:17:10;;;;;;;;;;;2.30;99.90;;;;;;5035044;28;19909;-64
2022/01/14 11:19:36;;;;;;;;;;;1.90;99.90;;;;;;5034901;28;20009;-65
2022/01/14 11:24:46;;;;;;;;;;;2.00;99.90;;;;;;5035036;28;20377;-63
2022/01/14 11:27:14;;;;;;;;;;;2.00;99.90;;;;;;5035309;28;19977;-66
2022/01/14 11:29:41;;;;;;;;;;;2.10;99.90;;;;;;5034959;28;19916;-66
2022/01/14 11:32:08;;;;;;;;;;;2.20;99.90;;;;;;5034250;28;19913;-66
2022/01/14 11:34:35;;;;;;;;;;;2.10;99.90;;;;;;5034696;28;20396;-66
2022/01/14 11:37:01;;;;;;;;;;;2.20;99.90;;;;;;5034807;28;19932;-67
2022/01/14 11:39:30;;;;;;;;;;;2.30;99.90;;;;;;5034930;28;20305;-67
2022/01/14 11:41:59;;;;;;;;;;;2.30;99.90;;;;;;5034368;28;20322;-66
2022/01/14 11:47:36;;;;;;;;;;;2.60;99.90;;;;;;5035169;28;19905;-67
2022/01/14 11:50:03;;;;;;;;;;;2.90;99.90;;;;;;5029439;28;19905;-67
2022/01/14 11:52:33;;;;;;;;;;;2.80;99.90;;;;;;5033091;28;19916;-67
2022/01/14 11:54:58;;;;;;;;;;;2.80;99.90;;;;;;5034158;28;19905;-67
2022/01/14 11:57:42;;;;;;;;;;;2.60;99.90;;;;;;5035127;28;19912;-66
2022/01/14 12:00:40;;;;;;;;;;;2.70;99.90;;;;;;5034570;28;19909;-66
2022/01/14 12:03:15;;;;;;;;;;;2.50;99.90;;;;;;5034572;28;19909;-67
2022/01/14 12:05:49;;;;;;;;;;;2.50;99.90;;;;;;5034631;28;20247;-67
2022/01/14 12:08:15;;;;;;;;;;;2.60;99.90;;;;;;5034428;28;20239;-67
2022/01/14 12:10:46;;;;;;;;;;;2.70;99.90;;;;;;5034340;28;19951;-68
2022/01/14 12:13:22;;;;;;;;;;;2.80;99.90;;;;;;5034252;28;19905;-66
2022/01/14 12:15:57;;;;;;;;;;;2.90;99.90;;;;;;5034109;28;19920;-68
2022/01/14 12:18:41;;;;;;;;;;;3.00;99.90;;;;;;5033824;28;19905;-68
2022/01/14 12:21:07;;;;;;;;;;;3.00;99.90;;;;;;5033918;28;19909;-67
2022/01/14 12:23:32;;;;;;;;;;;3.00;99.90;;;;;;5034155;28;19905;-66
2022/01/14 12:26:12;;;;;;;;;;;3.00;99.90;;;;;;5034048;28;19905;-66
2022/01/14 12:28:37;;;;;;;;;;;3.00;99.90;;;;;;5034224;28;20282;-68
2022/01/14 12:31:03;;;;;;;;;;;3.20;99.90;;;;;;5034265;28;19916;-67
2022/01/14 12:33:40;;;;;;;;;;;3.00;99.90;;;;;;5033654;28;20388;-67
2022/01/14 12:36:12;;;;;;;;;;;3.00;99.90;;;;;;5033943;28;20365;-67
2022/01/14 12:38:38;;;;;;;;;;;3.20;99.90;;;;;;5033614;28;19999;-67
2022/01/14 12:41:04;;;;;;;;;;;3.10;99.90;;;;;;5032178;28;20003;-67
2022/01/14 12:43:30;;;;;;;;;;;3.00;99.90;;;;;;5033611;28;19955;-67
2022/01/14 12:46:24;;;;;;;;;;;3.00;99.90;;;;;;5032571;28;19905;-67
2022/01/14 12:48:56;;;;;;;;;;;3.10;99.90;;;;;;5033771;28;19905;-67
2022/01/14 12:51:21;;;;;;;;;;;3.10;99.90;;;;;;5034750;28;19937;-67
2022/01/14 12:53:48;;;;;;;;;;;3.10;99.90;;;;;;5033518;28;19905;-67
2022/01/14 12:56:15;;;;;;;;;;;3.20;99.90;;;;;;5033798;28;19909;-67
2022/01/14 12:59:01;;;;;;;;;;;3.10;99.90;;;;;;5033471;28;19909;-67
2022/01/14 13:01:28;;;;;;;;;;;3.10;99.90;;;;;;5026419;28;19909;-67
2022/01/14 13:03:56;;;;;;;;;;;3.00;99.90;;;;;;5032221;28;20380;-67
2022/01/14 13:06:21;;;;;;;;;;;3.10;99.90;;;;;;5034435;28;19905;-67
2022/01/14 13:08:54;;;;;;;;;;;3.10;99.90;;;;;;5037894;28;19940;-68
2022/01/14 13:11:20;;;;;;;;;;;3.20;99.90;;;;;;5037569;28;19908;-66
2022/01/14 13:13:56;;;;;;;;;;;3.10;99.90;;;;;;5038265;28;19909;-68
2022/01/14 13:16:21;;;;;;;;;;;2.90;99.90;;;;;;5038690;28;19914;-67
2022/01/14 13:18:48;;;;;;;;;;;2.90;99.90;;;;;;5038001;28;19905;-68
2022/01/14 13:21:14;;;;;;;;;;;2.90;99.90;;;;;;5038486;28;19963;-69
2022/01/14 13:23:39;;;;;;;;;;;3.00;99.90;;;;;;5037771;28;19908;-67
2022/01/14 13:26:08;;;;;;;;;;;3.10;99.90;;;;;;5037367;28;20008;-68
2022/01/14 13:28:34;;;;;;;;;;;3.10;99.90;;;;;;5038266;28;20361;-70
2022/01/14 13:30:59;;;;;;;;;;;3.10;99.90;;;;;;5037412;28;19905;-69
2022/01/14 13:33:25;;;;;;;;;;;3.10;99.90;;;;;;5038890;28;19917;-69
2022/01/14 13:35:51;;;;;;;;;;;3.00;99.90;;;;;;5036319;28;20365;-69
2022/01/14 13:38:17;;;;;;;;;;;3.00;99.90;;;;;;5037839;28;19913;-68
2022/01/14 13:40:47;;;;;;;;;;;3.00;99.90;;;;;;5035751;28;19905;-69
2022/01/14 13:43:17;;;;;;;;;;;2.90;99.90;;;;;;5036166;28;20358;-69
2022/01/14 13:45:46;;;;;;;;;;;2.90;99.90;;;;;;5040458;28;20082;-69
2022/01/14 13:48:22;;;;;;;;;;;2.80;99.90;;;;;;5036941;28;20331;-69
2022/01/14 13:50:52;;;;;;;;;;;2.80;99.90;;;;;;5035424;28;19905;-69
2022/01/14 13:53:21;;;;;;;;;;;2.90;99.90;;;;;;5036925;28;19904;-69
2022/01/14 13:55:50;;;;;;;;;;;2.90;99.90;;;;;;5036872;28;19992;-69
2022/01/14 13:58:21;;;;;;;;;;;2.80;99.90;;;;;;5036672;28;19905;-70
2022/01/14 14:00:47;;;;;;;;;;;3.00;99.90;;;;;;5036952;28;19905;-70
2022/01/14 14:03:17;;;;;;;;;;;2.90;99.90;;;;;;5035441;28;19905;-69
2022/01/14 14:05:47;;;;;;;;;;;2.90;99.90;;;;;;5036678;28;19905;-65
2022/01/14 14:08:33;;;;;;;;;;;2.80;99.90;;;;;;5036792;28;20037;-67
2022/01/14 14:16:40;;;;;;;;;;;2.80;99.90;;;;;;5037725;28;19912;-67
2022/01/14 14:19:06;;;;;;;;;;;2.80;99.90;;;;;;5036686;28;19905;-66
2022/01/14 14:21:33;;;;;;;;;;;2.60;99.90;;;;;;5036243;28;20359;-66
2022/01/14 14:24:00;;;;;;;;;;;2.50;99.90;;;;;;5037343;28;19905;-66
2022/01/14 14:26:29;;;;;;;;;;;2.40;99.90;;;;;;5037193;28;19943;-65
2022/01/14 14:28:57;;;;;;;;;;;2.30;99.90;;;;;;5035032;28;19912;-66
2022/01/14 14:31:27;;;;;;;;;;;2.20;99.90;;;;;;5036264;28;19905;-64
2022/01/14 14:33:52;;;;;;;;;;;2.20;99.90;;;;;;5034749;28;19909;-67
2022/01/14 14:36:18;;;;;;;;;;;2.20;99.90;;;;;;5036071;28;19952;-65
2022/01/14 14:38:46;;;;;;;;;;;2.20;99.90;;;;;;5036120;28;19924;-66
2022/01/14 14:41:11;;;;;;;;;;;2.10;99.90;;;;;;5036307;28;20285;-66
2022/01/14 14:43:38;;;;;;;;;;;2.10;99.90;;;;;;5034846;28;19912;-66
2022/01/14 14:46:04;;;;;;;;;;;2.10;99.90;;;;;;5035629;28;20150;-66
2022/01/14 14:48:30;;;;;;;;;;;2.10;99.90;;;;;;5035575;28;19905;-66
2022/01/14 14:50:55;;;;;;;;;;;2.10;99.90;;;;;;5035857;28;20328;-66
2022/01/14 14:53:21;;;;;;;;;;;2.00;99.90;;;;;;5035646;28;19905;-67
2022/01/14 14:55:46;;;;;;;;;;;2.10;99.90;;;;;;5035629;28;19912;-66
2022/01/14 14:58:12;;;;;;;;;;;2.00;99.90;;;;;;5034327;28;20376;-66
2022/01/14 15:00:38;;;;;;;;;;;2.10;99.90;;;;;;5036562;28;19912;-66
2022/01/14 15:03:06;;;;;;;;;;;2.00;99.90;;;;;;5035154;28;20043;-67
2022/01/14 15:05:31;;;;;;;;;;;2.00;99.90;;;;;;5035233;28;19905;-67
2022/01/14 15:07:57;;;;;;;;;;;2.00;99.90;;;;;;5035152;28;19905;-66
2022/01/14 15:10:24;;;;;;;;;;;2.00;99.90;;;;;;5035140;28;19911;-66